sensor_id;sensor_type;location;lat;lon;timestamp;P1;durP1;ratioP1;P2;durP2;ratioP2
1525;SDS011;756;49.982;8.240;2022-09-03T00:00:21;2.43;;;1.60;;
1525;SDS011;756;49.982;8.240;2022-09-03T00:02:59;1.50;;;1.40;;
1525;SDS011;756;49.982;8.240;2022-09-03T00:05:34;1.43;;;1.33;;
1525;SDS011;756;49.982;8.240;2022-09-03T00:14:27;1.87;;;1.10;;
1525;SDS011;756;49.982;8.240;2022-09-03T00:17:24;1.53;;;1.43;;
1525;SDS011;756;49.982;8.240;2022-09-03T00:19:57;1.37;;;1.27;;
1525;SDS011;756;49.982;8.240;2022-09-03T00:22:50;1.43;;;1.30;;
1525;SDS011;756;49.982;8.240;2022-09-03T00:25:19;1.47;;;1.20;;
1525;SDS011;756;49.982;8.240;2022-09-03T00:27:53;1.50;;;1.40;;
1525;SDS011;756;49.982;8.240;2022-09-03T00:30:23;2.30;;;1.33;;
1525;SDS011;756;49.982;8.240;2022-09-03T00:35:26;2.00;;;1.23;;
1525;SDS011;756;49.982;8.240;2022-09-03T00:38:00;1.60;;;1.50;;
1525;SDS011;756;49.982;8.240;2022-09-03T00:40:31;2.40;;;1.43;;
1525;SDS011;756;49.982;8.240;2022-09-03T00:43:05;2.23;;;1.20;;
1525;SDS011;756;49.982;8.240;2022-09-03T00:48:20;1.63;;;1.47;;
1525;SDS011;756;49.982;8.240;2022-09-03T00:55:57;2.33;;;1.30;;
1525;SDS011;756;49.982;8.240;2022-09-03T01:06:56;2.97;;;1.37;;
1525;SDS011;756;49.982;8.240;2022-09-03T01:12:47;1.93;;;1.03;;
1525;SDS011;756;49.982;8.240;2022-09-03T01:23:03;1.30;;;1.20;;
1525;SDS011;756;49.982;8.240;2022-09-03T01:31:44;1.40;;;1.30;;
1525;SDS011;756;49.982;8.240;2022-09-03T01:34:19;2.07;;;1.60;;
1525;SDS011;756;49.982;8.240;2022-09-03T01:50:41;2.40;;;1.57;;
1525;SDS011;756;49.982;8.240;2022-09-03T01:59:00;1.97;;;1.40;;
1525;SDS011;756;49.982;8.240;2022-09-03T02:04:25;2.93;;;1.70;;
1525;SDS011;756;49.982;8.240;2022-09-03T02:06:55;2.40;;;1.50;;
1525;SDS011;756;49.982;8.240;2022-09-03T02:09:25;1.77;;;1.67;;
1525;SDS011;756;49.982;8.240;2022-09-03T02:12:02;2.87;;;1.40;;
1525;SDS011;756;49.982;8.240;2022-09-03T02:14:33;2.50;;;1.60;;
1525;SDS011;756;49.982;8.240;2022-09-03T02:17:01;2.37;;;1.50;;
1525;SDS011;756;49.982;8.240;2022-09-03T02:19:30;2.00;;;1.50;;
1525;SDS011;756;49.982;8.240;2022-09-03T02:21:57;1.47;;;1.30;;
1525;SDS011;756;49.982;8.240;2022-09-03T02:24:25;1.33;;;1.23;;
1525;SDS011;756;49.982;8.240;2022-09-03T02:26:53;1.70;;;1.60;;
1525;SDS011;756;49.982;8.240;2022-09-03T02:29:21;1.27;;;1.17;;
1525;SDS011;756;49.982;8.240;2022-09-03T02:31:48;1.70;;;1.20;;
1525;SDS011;756;49.982;8.240;2022-09-03T02:34:15;1.23;;;1.13;;
1525;SDS011;756;49.982;8.240;2022-09-03T02:36:43;1.40;;;1.20;;
1525;SDS011;756;49.982;8.240;2022-09-03T02:39:13;1.47;;;1.37;;
1525;SDS011;756;49.982;8.240;2022-09-03T02:41:41;2.10;;;1.27;;
1525;SDS011;756;49.982;8.240;2022-09-03T02:44:13;1.77;;;1.40;;
1525;SDS011;756;49.982;8.240;2022-09-03T02:46:51;1.83;;;1.43;;
1525;SDS011;756;49.982;8.240;2022-09-03T02:49:21;2.20;;;1.40;;
1525;SDS011;756;49.982;8.240;2022-09-03T02:51:48;1.73;;;1.40;;
1525;SDS011;756;49.982;8.240;2022-09-03T02:54:15;1.53;;;1.40;;
1525;SDS011;756;49.982;8.240;2022-09-03T02:56:46;1.80;;;1.23;;
1525;SDS011;756;49.982;8.240;2022-09-03T02:59:14;1.40;;;1.30;;
1525;SDS011;756;49.982;8.240;2022-09-03T03:01:42;1.80;;;1.30;;
1525;SDS011;756;49.982;8.240;2022-09-03T03:04:11;1.87;;;1.77;;
1525;SDS011;756;49.982;8.240;2022-09-03T03:06:38;3.80;;;1.50;;
1525;SDS011;756;49.982;8.240;2022-09-03T03:09:05;1.60;;;1.50;;
1525;SDS011;756;49.982;8.240;2022-09-03T03:11:33;2.20;;;1.47;;
1525;SDS011;756;49.982;8.240;2022-09-03T03:14:01;3.67;;;1.40;;
1525;SDS011;756;49.982;8.240;2022-09-03T03:16:28;1.90;;;1.33;;
1525;SDS011;756;49.982;8.240;2022-09-03T03:18:55;1.50;;;1.40;;
1525;SDS011;756;49.982;8.240;2022-09-03T03:21:22;3.70;;;1.60;;
1525;SDS011;756;49.982;8.240;2022-09-03T03:23:49;1.43;;;1.33;;
1525;SDS011;756;49.982;8.240;2022-09-03T03:26:16;2.00;;;1.80;;
1525;SDS011;756;49.982;8.240;2022-09-03T03:28:45;1.27;;;1.20;;
1525;SDS011;756;49.982;8.240;2022-09-03T03:31:17;1.43;;;1.20;;
1525;SDS011;756;49.982;8.240;2022-09-03T03:33:52;2.40;;;1.70;;
1525;SDS011;756;49.982;8.240;2022-09-03T03:36:21;1.30;;;1.10;;
1525;SDS011;756;49.982;8.240;2022-09-03T03:38:51;1.57;;;1.30;;
1525;SDS011;756;49.982;8.240;2022-09-03T03:41:20;2.03;;;1.43;;
1525;SDS011;756;49.982;8.240;2022-09-03T03:43:52;1.83;;;1.20;;
1525;SDS011;756;49.982;8.240;2022-09-03T03:46:24;1.80;;;1.43;;
1525;SDS011;756;49.982;8.240;2022-09-03T03:48:53;1.20;;;1.10;;
1525;SDS011;756;49.982;8.240;2022-09-03T03:51:20;2.23;;;1.33;;
1525;SDS011;756;49.982;8.240;2022-09-03T03:53:47;1.50;;;1.40;;
1525;SDS011;756;49.982;8.240;2022-09-03T03:56:14;1.43;;;1.33;;
1525;SDS011;756;49.982;8.240;2022-09-03T03:58:42;3.43;;;1.60;;
1525;SDS011;756;49.982;8.240;2022-09-03T04:01:12;1.33;;;1.20;;
1525;SDS011;756;49.982;8.240;2022-09-03T04:03:41;1.40;;;1.30;;
1525;SDS011;756;49.982;8.240;2022-09-03T04:06:09;1.30;;;1.13;;
1525;SDS011;756;49.982;8.240;2022-09-03T04:08:38;2.30;;;1.23;;
1525;SDS011;756;49.982;8.240;2022-09-03T04:11:08;1.73;;;1.20;;
1525;SDS011;756;49.982;8.240;2022-09-03T04:13:37;1.47;;;1.30;;
1525;SDS011;756;49.982;8.240;2022-09-03T04:16:10;1.33;;;0.93;;
1525;SDS011;756;49.982;8.240;2022-09-03T04:18:38;1.47;;;1.37;;
1525;SDS011;756;49.982;8.240;2022-09-03T04:21:07;2.50;;;1.50;;
1525;SDS011;756;49.982;8.240;2022-09-03T04:23:37;3.00;;;1.60;;
1525;SDS011;756;49.982;8.240;2022-09-03T04:26:11;1.70;;;1.60;;
1525;SDS011;756;49.982;8.240;2022-09-03T04:28:39;3.03;;;1.50;;
1525;SDS011;756;49.982;8.240;2022-09-03T04:31:07;1.60;;;1.50;;
1525;SDS011;756;49.982;8.240;2022-09-03T04:33:36;2.43;;;1.40;;
1525;SDS011;756;49.982;8.240;2022-09-03T04:38:39;2.27;;;1.67;;
1525;SDS011;756;49.982;8.240;2022-09-03T04:41:08;2.67;;;1.40;;
1525;SDS011;756;49.982;8.240;2022-09-03T04:43:37;1.60;;;1.50;;
1525;SDS011;756;49.982;8.240;2022-09-03T04:46:04;1.83;;;1.67;;
1525;SDS011;756;49.982;8.240;2022-09-03T04:48:42;1.90;;;1.30;;
1525;SDS011;756;49.982;8.240;2022-09-03T04:51:13;1.70;;;1.60;;
1525;SDS011;756;49.982;8.240;2022-09-03T04:53:42;4.50;;;1.50;;
1525;SDS011;756;49.982;8.240;2022-09-03T04:56:15;3.83;;;1.60;;
1525;SDS011;756;49.982;8.240;2022-09-03T04:58:42;4.60;;;1.63;;
1525;SDS011;756;49.982;8.240;2022-09-03T05:01:10;2.10;;;1.30;;
1525;SDS011;756;49.982;8.240;2022-09-03T05:03:40;1.53;;;1.43;;
1525;SDS011;756;49.982;8.240;2022-09-03T05:06:07;3.03;;;1.40;;
1525;SDS011;756;49.982;8.240;2022-09-03T05:08:34;3.50;;;1.67;;
1525;SDS011;756;49.982;8.240;2022-09-03T05:11:02;1.53;;;1.43;;
1525;SDS011;756;49.982;8.240;2022-09-03T05:13:31;1.17;;;1.17;;
1525;SDS011;756;49.982;8.240;2022-09-03T05:15:59;1.50;;;1.40;;
1525;SDS011;756;49.982;8.240;2022-09-03T05:18:27;2.63;;;1.40;;
1525;SDS011;756;49.982;8.240;2022-09-03T05:21:01;2.80;;;1.93;;
1525;SDS011;756;49.982;8.240;2022-09-03T05:23:30;1.50;;;1.40;;
1525;SDS011;756;49.982;8.240;2022-09-03T05:26:03;1.80;;;1.40;;
1525;SDS011;756;49.982;8.240;2022-09-03T05:28:37;2.73;;;1.37;;
1525;SDS011;756;49.982;8.240;2022-09-03T05:31:06;1.70;;;1.60;;
1525;SDS011;756;49.982;8.240;2022-09-03T05:33:36;3.40;;;1.40;;
1525;SDS011;756;49.982;8.240;2022-09-03T05:36:05;2.17;;;1.60;;
1525;SDS011;756;49.982;8.240;2022-09-03T05:38:34;3.73;;;1.30;;
1525;SDS011;756;49.982;8.240;2022-09-03T05:41:01;1.77;;;1.67;;
1525;SDS011;756;49.982;8.240;2022-09-03T05:43:30;1.60;;;1.50;;
1525;SDS011;756;49.982;8.240;2022-09-03T05:45:58;1.43;;;1.33;;
1525;SDS011;756;49.982;8.240;2022-09-03T05:48:26;1.90;;;1.70;;
1525;SDS011;756;49.982;8.240;2022-09-03T05:53:26;1.83;;;1.33;;
1525;SDS011;756;49.982;8.240;2022-09-03T05:55:55;3.37;;;1.97;;
1525;SDS011;756;49.982;8.240;2022-09-03T05:58:35;2.00;;;1.80;;
1525;SDS011;756;49.982;8.240;2022-09-03T06:01:09;2.13;;;1.30;;
1525;SDS011;756;49.982;8.240;2022-09-03T06:03:36;1.87;;;1.63;;
1525;SDS011;756;49.982;8.240;2022-09-03T06:06:02;2.17;;;1.60;;
1525;SDS011;756;49.982;8.240;2022-09-03T06:08:30;2.40;;;1.60;;
1525;SDS011;756;49.982;8.240;2022-09-03T06:10:57;1.80;;;1.70;;
1525;SDS011;756;49.982;8.240;2022-09-03T06:13:24;2.07;;;1.80;;
1525;SDS011;756;49.982;8.240;2022-09-03T06:16:01;1.67;;;1.57;;
1525;SDS011;756;49.982;8.240;2022-09-03T06:18:29;2.60;;;1.80;;
1525;SDS011;756;49.982;8.240;2022-09-03T06:20:57;2.60;;;2.40;;
1525;SDS011;756;49.982;8.240;2022-09-03T06:23:26;2.03;;;1.63;;
1525;SDS011;756;49.982;8.240;2022-09-03T06:28:37;2.10;;;2.00;;
1525;SDS011;756;49.982;8.240;2022-09-03T06:31:07;1.73;;;1.63;;
1525;SDS011;756;49.982;8.240;2022-09-03T06:33:35;4.60;;;2.10;;
1525;SDS011;756;49.982;8.240;2022-09-03T06:36:04;2.20;;;2.00;;
1525;SDS011;756;49.982;8.240;2022-09-03T06:38:34;2.10;;;1.80;;
1525;SDS011;756;49.982;8.240;2022-09-03T06:41:04;2.00;;;1.90;;
1525;SDS011;756;49.982;8.240;2022-09-03T06:43:37;4.37;;;1.70;;
1525;SDS011;756;49.982;8.240;2022-09-03T06:46:06;2.57;;;2.37;;
1525;SDS011;756;49.982;8.240;2022-09-03T06:48:35;1.90;;;1.80;;
1525;SDS011;756;49.982;8.240;2022-09-03T06:51:04;3.70;;;2.37;;
1525;SDS011;756;49.982;8.240;2022-09-03T06:53:35;2.20;;;2.00;;
1525;SDS011;756;49.982;8.240;2022-09-03T06:56:07;1.67;;;1.57;;
1525;SDS011;756;49.982;8.240;2022-09-03T06:58:36;4.13;;;2.90;;
1525;SDS011;756;49.982;8.240;2022-09-03T07:01:12;2.73;;;2.43;;
1525;SDS011;756;49.982;8.240;2022-09-03T07:03:41;1.90;;;1.80;;
1525;SDS011;756;49.982;8.240;2022-09-03T07:06:09;2.50;;;2.30;;
1525;SDS011;756;49.982;8.240;2022-09-03T07:08:44;2.43;;;2.23;;
1525;SDS011;756;49.982;8.240;2022-09-03T07:11:12;4.10;;;2.07;;
1525;SDS011;756;49.982;8.240;2022-09-03T07:13:41;1.83;;;1.73;;
1525;SDS011;756;49.982;8.240;2022-09-03T07:16:11;2.63;;;2.43;;
1525;SDS011;756;49.982;8.240;2022-09-03T07:18:46;2.47;;;2.27;;
1525;SDS011;756;49.982;8.240;2022-09-03T07:21:15;2.60;;;2.43;;
1525;SDS011;756;49.982;8.240;2022-09-03T07:23:43;3.93;;;2.80;;
1525;SDS011;756;49.982;8.240;2022-09-03T07:26:11;3.17;;;2.33;;
1525;SDS011;756;49.982;8.240;2022-09-03T07:28:41;2.67;;;2.47;;
1525;SDS011;756;49.982;8.240;2022-09-03T07:31:10;3.30;;;3.00;;
1525;SDS011;756;49.982;8.240;2022-09-03T07:33:41;3.23;;;3.03;;
1525;SDS011;756;49.982;8.240;2022-09-03T07:36:09;3.40;;;3.10;;
1525;SDS011;756;49.982;8.240;2022-09-03T07:38:40;4.00;;;2.93;;
1525;SDS011;756;49.982;8.240;2022-09-03T07:41:10;3.40;;;3.10;;
1525;SDS011;756;49.982;8.240;2022-09-03T07:43:50;4.33;;;3.17;;
1525;SDS011;756;49.982;8.240;2022-09-03T07:46:18;3.90;;;3.47;;
1525;SDS011;756;49.982;8.240;2022-09-03T07:51:17;5.00;;;3.87;;
1525;SDS011;756;49.982;8.240;2022-09-03T07:53:46;3.40;;;3.10;;
1525;SDS011;756;49.982;8.240;2022-09-03T07:56:14;4.13;;;3.43;;
1525;SDS011;756;49.982;8.240;2022-09-03T07:58:41;6.37;;;3.93;;
1525;SDS011;756;49.982;8.240;2022-09-03T08:01:12;5.00;;;4.50;;
1525;SDS011;756;49.982;8.240;2022-09-03T08:03:45;4.57;;;4.17;;
1525;SDS011;756;49.982;8.240;2022-09-03T08:06:15;4.77;;;3.50;;
1525;SDS011;756;49.982;8.240;2022-09-03T08:08:44;4.30;;;3.90;;
1525;SDS011;756;49.982;8.240;2022-09-03T08:11:14;4.00;;;3.70;;
1525;SDS011;756;49.982;8.240;2022-09-03T08:13:59;4.57;;;3.87;;
1525;SDS011;756;49.982;8.240;2022-09-03T08:16:28;5.07;;;4.57;;
1525;SDS011;756;49.982;8.240;2022-09-03T08:18:57;5.17;;;4.67;;
1525;SDS011;756;49.982;8.240;2022-09-03T08:21:24;9.03;;;5.10;;
1525;SDS011;756;49.982;8.240;2022-09-03T08:23:53;5.17;;;4.77;;
1525;SDS011;756;49.982;8.240;2022-09-03T08:26:37;5.80;;;4.47;;
1525;SDS011;756;49.982;8.240;2022-09-03T08:29:06;4.87;;;4.33;;
1525;SDS011;756;49.982;8.240;2022-09-03T08:31:34;4.83;;;4.43;;
1525;SDS011;756;49.982;8.240;2022-09-03T08:34:02;6.93;;;4.57;;
1525;SDS011;756;49.982;8.240;2022-09-03T08:36:36;5.27;;;4.23;;
1525;SDS011;756;49.982;8.240;2022-09-03T08:39:05;4.53;;;4.13;;
1525;SDS011;756;49.982;8.240;2022-09-03T08:44:14;4.40;;;4.00;;
1525;SDS011;756;49.982;8.240;2022-09-03T08:52:06;5.03;;;4.63;;
1525;SDS011;756;49.982;8.240;2022-09-03T08:54:44;4.63;;;4.13;;
1525;SDS011;756;49.982;8.240;2022-09-03T08:57:12;5.23;;;4.73;;
1525;SDS011;756;49.982;8.240;2022-09-03T08:59:41;5.03;;;4.40;;
1525;SDS011;756;49.982;8.240;2022-09-03T09:10:20;4.60;;;4.20;;
1525;SDS011;756;49.982;8.240;2022-09-03T09:16:06;5.17;;;4.67;;
1525;SDS011;756;49.982;8.240;2022-09-03T09:22:00;4.93;;;4.53;;
1525;SDS011;756;49.982;8.240;2022-09-03T09:24:41;5.30;;;4.17;;
1525;SDS011;756;49.982;8.240;2022-09-03T09:27:12;5.00;;;4.10;;
1525;SDS011;756;49.982;8.240;2022-09-03T09:29:42;4.90;;;4.50;;
1525;SDS011;756;49.982;8.240;2022-09-03T09:32:15;5.13;;;4.67;;
1525;SDS011;756;49.982;8.240;2022-09-03T09:34:46;6.10;;;5.00;;
1525;SDS011;756;49.982;8.240;2022-09-03T09:37:17;5.23;;;4.83;;
1525;SDS011;756;49.982;8.240;2022-09-03T09:39:55;7.73;;;4.80;;
1525;SDS011;756;49.982;8.240;2022-09-03T09:42:24;5.77;;;5.27;;
1525;SDS011;756;49.982;8.240;2022-09-03T09:44:51;5.07;;;4.57;;
1525;SDS011;756;49.982;8.240;2022-09-03T09:47:25;4.57;;;4.17;;
1525;SDS011;756;49.982;8.240;2022-09-03T09:49:56;5.20;;;4.80;;
1525;SDS011;756;49.982;8.240;2022-09-03T09:52:25;4.83;;;4.43;;
1525;SDS011;756;49.982;8.240;2022-09-03T09:55:08;5.27;;;4.87;;
1525;SDS011;756;49.982;8.240;2022-09-03T09:57:39;4.67;;;4.33;;
1525;SDS011;756;49.982;8.240;2022-09-03T10:00:07;4.93;;;4.53;;
1525;SDS011;756;49.982;8.240;2022-09-03T10:02:48;5.13;;;4.63;;
1525;SDS011;756;49.982;8.240;2022-09-03T10:07:56;4.80;;;4.40;;
1525;SDS011;756;49.982;8.240;2022-09-03T10:10:25;5.23;;;4.80;;
1525;SDS011;756;49.982;8.240;2022-09-03T10:15:34;5.90;;;5.40;;
1525;SDS011;756;49.982;8.240;2022-09-03T10:18:26;5.20;;;4.80;;
1525;SDS011;756;49.982;8.240;2022-09-03T10:21:09;5.37;;;4.80;;
1525;SDS011;756;49.982;8.240;2022-09-03T10:23:45;5.13;;;4.63;;
1525;SDS011;756;49.982;8.240;2022-09-03T10:26:33;5.00;;;4.60;;
1525;SDS011;756;49.982;8.240;2022-09-03T10:29:03;5.17;;;4.67;;
1525;SDS011;756;49.982;8.240;2022-09-03T10:31:35;5.73;;;5.23;;
1525;SDS011;756;49.982;8.240;2022-09-03T10:36:38;5.87;;;5.27;;
1525;SDS011;756;49.982;8.240;2022-09-03T10:44:59;4.90;;;4.50;;
1525;SDS011;756;49.982;8.240;2022-09-03T10:50:43;5.07;;;4.57;;
1525;SDS011;756;49.982;8.240;2022-09-03T10:56:12;6.70;;;5.20;;
1525;SDS011;756;49.982;8.240;2022-09-03T11:07:27;5.70;;;5.20;;
1525;SDS011;756;49.982;8.240;2022-09-03T11:13:05;5.43;;;5.03;;
1525;SDS011;756;49.982;8.240;2022-09-03T11:18:38;5.77;;;5.27;;
1525;SDS011;756;49.982;8.240;2022-09-03T11:21:11;5.70;;;5.20;;
1525;SDS011;756;49.982;8.240;2022-09-03T11:23:40;5.67;;;5.17;;
1525;SDS011;756;49.982;8.240;2022-09-03T11:26:12;6.20;;;5.70;;
1525;SDS011;756;49.982;8.240;2022-09-03T11:31:32;6.23;;;5.13;;
1525;SDS011;756;49.982;8.240;2022-09-03T11:34:13;6.40;;;5.90;;
1525;SDS011;756;49.982;8.240;2022-09-03T11:37:05;5.40;;;4.90;;
1525;SDS011;756;49.982;8.240;2022-09-03T11:39:44;5.53;;;4.50;;
1525;SDS011;756;49.982;8.240;2022-09-03T11:42:33;5.60;;;5.10;;
1525;SDS011;756;49.982;8.240;2022-09-03T11:47:53;11.27;;;5.50;;
1525;SDS011;756;49.982;8.240;2022-09-03T11:53:06;4.80;;;4.40;;
1525;SDS011;756;49.982;8.240;2022-09-03T11:56:20;5.10;;;4.20;;
1525;SDS011;756;49.982;8.240;2022-09-03T11:58:29;5.53;;;5.07;;
1525;SDS011;756;49.982;8.240;2022-09-03T12:01:01;5.60;;;4.50;;
1525;SDS011;756;49.982;8.240;2022-09-03T12:03:37;6.47;;;5.43;;
1525;SDS011;756;49.982;8.240;2022-09-03T12:06:22;6.27;;;5.67;;
1525;SDS011;756;49.982;8.240;2022-09-03T12:09:12;8.90;;;5.27;;
1525;SDS011;756;49.982;8.240;2022-09-03T12:12:13;5.60;;;5.10;;
1525;SDS011;756;49.982;8.240;2022-09-03T12:17:55;5.63;;;4.87;;
1525;SDS011;756;49.982;8.240;2022-09-03T12:20:45;3.67;;;3.40;;
1525;SDS011;756;49.982;8.240;2022-09-03T12:23:24;4.43;;;4.10;;
1525;SDS011;756;49.982;8.240;2022-09-03T12:26:06;5.87;;;4.23;;
1525;SDS011;756;49.982;8.240;2022-09-03T12:28:40;3.80;;;3.47;;
1525;SDS011;756;49.982;8.240;2022-09-03T12:33:49;4.00;;;3.60;;
1525;SDS011;756;49.982;8.240;2022-09-03T12:36:20;4.60;;;4.07;;
1525;SDS011;756;49.982;8.240;2022-09-03T12:38:48;4.27;;;3.87;;
1525;SDS011;756;49.982;8.240;2022-09-03T12:41:35;4.17;;;3.77;;
1525;SDS011;756;49.982;8.240;2022-09-03T12:44:03;3.50;;;3.20;;
1525;SDS011;756;49.982;8.240;2022-09-03T12:46:31;3.03;;;2.83;;
1525;SDS011;756;49.982;8.240;2022-09-03T12:49:03;3.07;;;2.87;;
1525;SDS011;756;49.982;8.240;2022-09-03T12:51:57;2.90;;;2.70;;
1525;SDS011;756;49.982;8.240;2022-09-03T12:54:31;2.67;;;2.47;;
1525;SDS011;756;49.982;8.240;2022-09-03T12:57:01;4.57;;;3.30;;
1525;SDS011;756;49.982;8.240;2022-09-03T12:59:30;2.50;;;2.30;;
1525;SDS011;756;49.982;8.240;2022-09-03T13:02:01;2.00;;;1.90;;
1525;SDS011;756;49.982;8.240;2022-09-03T13:04:41;2.73;;;2.53;;
1525;SDS011;756;49.982;8.240;2022-09-03T13:09:39;2.70;;;2.50;;
1525;SDS011;756;49.982;8.240;2022-09-03T13:12:19;3.50;;;2.40;;
1525;SDS011;756;49.982;8.240;2022-09-03T13:14:55;3.70;;;2.53;;
1525;SDS011;756;49.982;8.240;2022-09-03T13:20:23;2.87;;;2.63;;
1525;SDS011;756;49.982;8.240;2022-09-03T13:23:13;2.77;;;2.57;;
1525;SDS011;756;49.982;8.240;2022-09-03T13:28:45;2.90;;;2.70;;
1525;SDS011;756;49.982;8.240;2022-09-03T13:31:45;2.43;;;2.23;;
1525;SDS011;756;49.982;8.240;2022-09-03T13:34:21;3.40;;;2.73;;
1525;SDS011;756;49.982;8.240;2022-09-03T13:36:58;2.43;;;2.33;;
1525;SDS011;756;49.982;8.240;2022-09-03T13:39:53;3.40;;;2.77;;
1525;SDS011;756;49.982;8.240;2022-09-03T13:42:26;3.00;;;2.80;;
1525;SDS011;756;49.982;8.240;2022-09-03T13:47:35;2.50;;;2.30;;
1525;SDS011;756;49.982;8.240;2022-09-03T13:50:28;2.27;;;2.17;;
1525;SDS011;756;49.982;8.240;2022-09-03T13:53:14;3.03;;;2.83;;
1525;SDS011;756;49.982;8.240;2022-09-03T13:55:52;2.90;;;2.70;;
1525;SDS011;756;49.982;8.240;2022-09-03T13:58:26;2.70;;;2.50;;
1525;SDS011;756;49.982;8.240;2022-09-03T14:01:16;3.53;;;3.07;;
1525;SDS011;756;49.982;8.240;2022-09-03T14:04:09;3.57;;;3.27;;
1525;SDS011;756;49.982;8.240;2022-09-03T14:06:48;3.30;;;3.00;;
1525;SDS011;756;49.982;8.240;2022-09-03T14:18:36;3.13;;;2.93;;
1525;SDS011;756;49.982;8.240;2022-09-03T14:21:17;3.33;;;3.03;;
1525;SDS011;756;49.982;8.240;2022-09-03T14:24:04;2.90;;;2.60;;
1525;SDS011;756;49.982;8.240;2022-09-03T14:26:35;3.90;;;2.97;;
1525;SDS011;756;49.982;8.240;2022-09-03T14:45:14;3.53;;;3.33;;
1525;SDS011;756;49.982;8.240;2022-09-03T14:56:44;4.00;;;3.70;;
1525;SDS011;756;49.982;8.240;2022-09-03T15:02:45;3.90;;;3.60;;
1525;SDS011;756;49.982;8.240;2022-09-03T15:08:36;4.77;;;4.00;;
1525;SDS011;756;49.982;8.240;2022-09-03T15:11:18;3.80;;;3.40;;
1525;SDS011;756;49.982;8.240;2022-09-03T15:16:32;4.40;;;4.10;;
1525;SDS011;756;49.982;8.240;2022-09-03T15:27:17;3.93;;;3.63;;
1525;SDS011;756;49.982;8.240;2022-09-03T15:30:00;4.20;;;3.07;;
1525;SDS011;756;49.982;8.240;2022-09-03T15:37:51;3.80;;;3.50;;
1525;SDS011;756;49.982;8.240;2022-09-03T15:40:33;4.30;;;3.90;;
1525;SDS011;756;49.982;8.240;2022-09-03T15:43:17;3.77;;;3.37;;
1525;SDS011;756;49.982;8.240;2022-09-03T15:48:24;4.33;;;3.93;;
1525;SDS011;756;49.982;8.240;2022-09-03T15:51:14;3.83;;;3.43;;
1525;SDS011;756;49.982;8.240;2022-09-03T15:56:31;3.20;;;3.00;;
1525;SDS011;756;49.982;8.240;2022-09-03T16:02:07;4.80;;;3.47;;
1525;SDS011;756;49.982;8.240;2022-09-03T16:12:56;2.13;;;2.00;;
1525;SDS011;756;49.982;8.240;2022-09-03T16:18:22;0.90;;;0.60;;
1525;SDS011;756;49.982;8.240;2022-09-03T16:21:22;0.90;;;0.60;;
1525;SDS011;756;49.982;8.240;2022-09-03T16:24:22;1.20;;;0.40;;
1525;SDS011;756;49.982;8.240;2022-09-03T16:26:52;2.30;;;1.20;;
1525;SDS011;756;49.982;8.240;2022-09-03T16:29:37;1.83;;;1.10;;
1525;SDS011;756;49.982;8.240;2022-09-03T16:32:06;0.87;;;0.60;;
1525;SDS011;756;49.982;8.240;2022-09-03T16:40:50;1.70;;;0.70;;
1525;SDS011;756;49.982;8.240;2022-09-03T16:43:15;1.30;;;0.77;;
1525;SDS011;756;49.982;8.240;2022-09-03T16:49:02;1.20;;;0.90;;
1525;SDS011;756;49.982;8.240;2022-09-03T16:54:31;1.50;;;0.80;;
1525;SDS011;756;49.982;8.240;2022-09-03T16:57:27;3.13;;;0.93;;
1525;SDS011;756;49.982;8.240;2022-09-03T17:00:00;1.53;;;0.90;;
1525;SDS011;756;49.982;8.240;2022-09-03T17:02:46;1.93;;;1.00;;
1525;SDS011;756;49.982;8.240;2022-09-03T17:11:38;4.40;;;1.37;;
1525;SDS011;756;49.982;8.240;2022-09-03T17:14:39;3.43;;;1.23;;
1525;SDS011;756;49.982;8.240;2022-09-03T17:25:31;2.60;;;1.93;;
1525;SDS011;756;49.982;8.240;2022-09-03T17:36:14;1.60;;;1.40;;
1525;SDS011;756;49.982;8.240;2022-09-03T17:38:50;2.93;;;1.40;;
1525;SDS011;756;49.982;8.240;2022-09-03T17:41:45;2.87;;;1.10;;
1525;SDS011;756;49.982;8.240;2022-09-03T17:50:41;2.93;;;1.57;;
1525;SDS011;756;49.982;8.240;2022-09-03T17:52:37;1.73;;;1.20;;
1525;SDS011;756;49.982;8.240;2022-09-03T17:55:34;2.00;;;1.10;;
1525;SDS011;756;49.982;8.240;2022-09-03T18:03:31;2.77;;;1.60;;
1525;SDS011;756;49.982;8.240;2022-09-03T18:06:11;3.03;;;1.27;;
1525;SDS011;756;49.982;8.240;2022-09-03T18:09:19;3.33;;;1.30;;
1525;SDS011;756;49.982;8.240;2022-09-03T18:12:10;1.53;;;1.13;;
1525;SDS011;756;49.982;8.240;2022-09-03T18:14:51;2.30;;;1.10;;
1525;SDS011;756;49.982;8.240;2022-09-03T18:17:30;1.43;;;1.10;;
1525;SDS011;756;49.982;8.240;2022-09-03T18:19:59;1.20;;;1.10;;
1525;SDS011;756;49.982;8.240;2022-09-03T18:26:22;1.23;;;1.13;;
1525;SDS011;756;49.982;8.240;2022-09-03T18:29:14;2.33;;;1.20;;
1525;SDS011;756;49.982;8.240;2022-09-03T18:32:04;1.53;;;1.43;;
1525;SDS011;756;49.982;8.240;2022-09-03T18:34:49;4.67;;;1.40;;
1525;SDS011;756;49.982;8.240;2022-09-03T18:37:36;3.07;;;2.87;;
1525;SDS011;756;49.982;8.240;2022-09-03T18:40:25;3.80;;;2.23;;
1525;SDS011;756;49.982;8.240;2022-09-03T18:43:22;2.57;;;1.30;;
1525;SDS011;756;49.982;8.240;2022-09-03T19:01:45;2.40;;;1.10;;
1525;SDS011;756;49.982;8.240;2022-09-03T19:07:20;2.53;;;2.10;;
1525;SDS011;756;49.982;8.240;2022-09-03T19:10:15;2.20;;;2.07;;
1525;SDS011;756;49.982;8.240;2022-09-03T19:19:19;4.40;;;2.90;;
1525;SDS011;756;49.982;8.240;2022-09-03T19:22:10;4.03;;;3.07;;
1525;SDS011;756;49.982;8.240;2022-09-03T19:25:08;3.00;;;2.70;;
1525;SDS011;756;49.982;8.240;2022-09-03T19:31:01;2.77;;;2.57;;
1525;SDS011;756;49.982;8.240;2022-09-03T19:34:08;2.40;;;2.07;;
1525;SDS011;756;49.982;8.240;2022-09-03T19:37:14;3.07;;;2.00;;
1525;SDS011;756;49.982;8.240;2022-09-03T19:40:11;2.03;;;1.80;;
1525;SDS011;756;49.982;8.240;2022-09-03T19:43:27;1.70;;;1.60;;
1525;SDS011;756;49.982;8.240;2022-09-03T19:49:39;4.07;;;1.80;;
1525;SDS011;756;49.982;8.240;2022-09-03T19:52:43;2.10;;;1.90;;
1525;SDS011;756;49.982;8.240;2022-09-03T19:55:31;2.80;;;2.10;;
1525;SDS011;756;49.982;8.240;2022-09-03T19:58:21;2.13;;;1.93;;
1525;SDS011;756;49.982;8.240;2022-09-03T20:01:10;3.10;;;1.83;;
1525;SDS011;756;49.982;8.240;2022-09-03T20:03:58;2.87;;;2.20;;
1525;SDS011;756;49.982;8.240;2022-09-03T20:06:47;4.37;;;3.70;;
1525;SDS011;756;49.982;8.240;2022-09-03T20:09:33;6.83;;;6.20;;
1525;SDS011;756;49.982;8.240;2022-09-03T20:12:24;5.20;;;4.70;;
1525;SDS011;756;49.982;8.240;2022-09-03T20:14:57;3.83;;;3.53;;
1525;SDS011;756;49.982;8.240;2022-09-03T20:31:16;2.97;;;2.57;;
1525;SDS011;756;49.982;8.240;2022-09-03T20:34:02;2.53;;;1.93;;
1525;SDS011;756;49.982;8.240;2022-09-03T20:36:40;2.50;;;1.50;;
1525;SDS011;756;49.982;8.240;2022-09-03T20:47:51;2.23;;;1.93;;
1525;SDS011;756;49.982;8.240;2022-09-03T20:53:40;1.83;;;1.47;;
1525;SDS011;756;49.982;8.240;2022-09-03T21:02:43;1.40;;;1.30;;
1525;SDS011;756;49.982;8.240;2022-09-03T21:08:39;2.40;;;1.40;;
1525;SDS011;756;49.982;8.240;2022-09-03T21:19:38;1.67;;;1.43;;
1525;SDS011;756;49.982;8.240;2022-09-03T21:22:26;1.83;;;1.73;;
1525;SDS011;756;49.982;8.240;2022-09-03T21:28:26;2.80;;;2.00;;
1525;SDS011;756;49.982;8.240;2022-09-03T21:30:59;2.50;;;2.20;;
1525;SDS011;756;49.982;8.240;2022-09-03T21:33:37;2.43;;;2.03;;
1525;SDS011;756;49.982;8.240;2022-09-03T21:36:06;2.83;;;2.50;;
1525;SDS011;756;49.982;8.240;2022-09-03T21:38:46;1.90;;;;;
1525;SDS011;756;49.982;8.240;2022-09-03T21:41:38;2.77;;;1.93;;
1525;SDS011;756;49.982;8.240;2022-09-03T21:44:34;3.40;;;1.70;;
1525;SDS011;756;49.982;8.240;2022-09-03T21:47:07;3.07;;;1.90;;
1525;SDS011;756;49.982;8.240;2022-09-03T21:49:45;1.43;;;1.33;;
1525;SDS011;756;49.982;8.240;2022-09-03T21:55:18;2.17;;;1.90;;
1525;SDS011;756;49.982;8.240;2022-09-03T22:00:30;2.40;;;1.80;;
1525;SDS011;756;49.982;8.240;2022-09-03T22:03:00;2.90;;;2.23;;
1525;SDS011;756;49.982;8.240;2022-09-03T22:05:27;2.00;;;1.67;;
1525;SDS011;756;49.982;8.240;2022-09-03T22:10:58;4.60;;;2.27;;
1525;SDS011;756;49.982;8.240;2022-09-03T22:16:22;3.57;;;1.87;;
1525;SDS011;756;49.982;8.240;2022-09-03T22:18:55;2.67;;;2.30;;
1525;SDS011;756;49.982;8.240;2022-09-03T22:23:58;2.63;;;1.70;;
1525;SDS011;756;49.982;8.240;2022-09-03T22:27:02;3.03;;;2.10;;
1525;SDS011;756;49.982;8.240;2022-09-03T22:29:52;2.43;;;2.10;;
1525;SDS011;756;49.982;8.240;2022-09-03T22:38:32;2.90;;;2.53;;
1525;SDS011;756;49.982;8.240;2022-09-03T22:43:36;6.70;;;3.20;;